createdAt,value
2023-03-14T00:07:30.896Z,0.00
2023-03-14T00:22:30.567Z,0.00
2023-03-14T00:37:30.620Z,0.00
2023-03-14T00:52:31.166Z,0.00
2023-03-14T01:07:31.256Z,0.00
2023-03-14T01:22:31.394Z,0.00
2023-03-14T01:37:31.911Z,0.00
2023-03-14T01:52:31.609Z,0.00
2023-03-14T02:07:31.670Z,0.00
2023-03-14T02:22:31.763Z,0.00
2023-03-14T02:37:32.367Z,0.00
2023-03-14T02:52:33.365Z,0.00
2023-03-14T03:07:33.431Z,0.00
2023-03-14T03:22:33.109Z,0.00
2023-03-14T03:37:34.200Z,0.00
2023-03-14T03:52:34.297Z,0.00
2023-03-14T04:07:34.919Z,0.00
2023-03-14T04:22:34.557Z,0.00
2023-03-14T04:37:34.579Z,0.00
2023-03-14T04:52:35.248Z,0.00
2023-03-14T05:07:35.858Z,8.00
2023-03-14T05:22:35.660Z,36.00
2023-03-14T05:37:36.289Z,88.00
2023-03-14T05:52:37.385Z,376.00
2023-03-14T06:07:37.948Z,756.00
2023-03-14T06:22:38.250Z,1960.00
2023-03-14T06:37:38.568Z,2180.00
2023-03-14T06:52:38.810Z,3356.00
2023-03-14T07:07:39.197Z,2960.00
2023-03-14T07:22:39.315Z,5376.00
2023-03-14T07:37:39.435Z,5240.00
2023-03-14T07:52:40.164Z,9388.00
2023-03-14T08:07:41.171Z,4544.00
2023-03-14T08:22:42.258Z,13332.00
2023-03-14T08:37:42.295Z,7416.00
2023-03-14T08:52:42.813Z,6960.00
2023-03-14T09:07:43.233Z,8612.00
2023-03-14T09:22:43.790Z,18176.00
2023-03-14T09:37:44.211Z,10808.00
2023-03-14T09:52:45.221Z,6436.00
2023-03-14T10:07:45.085Z,5004.00
2023-03-14T10:22:46.064Z,3944.00
2023-03-14T10:37:45.946Z,2836.00
2023-03-14T10:53:01.405Z,3556.00
2023-03-14T11:07:51.540Z,2964.00
2023-03-14T11:22:51.858Z,2752.00
2023-03-14T11:37:52.042Z,5208.00
2023-03-14T11:52:52.194Z,11476.00
2023-03-14T12:07:53.164Z,8692.00
2023-03-14T12:22:53.336Z,92768.00
2023-03-14T12:37:53.662Z,46176.00
2023-03-14T12:52:54.088Z,13056.00
2023-03-14T13:07:54.704Z,24096.00
2023-03-14T13:22:54.952Z,95168.00
2023-03-14T13:38:10.290Z,42304.00
2023-03-14T13:53:01.215Z,99360.00
2023-03-14T14:08:01.679Z,96928.00
2023-03-14T14:23:02.744Z,9516.00
2023-03-14T14:38:03.290Z,12336.00
2023-03-14T14:53:03.698Z,844.00
2023-03-14T15:08:03.683Z,272.00
2023-03-14T15:23:03.824Z,740.00
2023-03-14T15:38:04.504Z,340.00
2023-03-14T15:53:04.336Z,184.00
2023-03-14T16:08:04.522Z,224.00
2023-03-14T16:23:05.242Z,224.00
2023-03-14T16:38:06.285Z,208.00
2023-03-14T16:53:10.727Z,148.00
2023-03-14T17:08:12.892Z,40.00
2023-03-14T17:23:12.832Z,4.00
2023-03-14T17:38:13.252Z,0.00
2023-03-14T17:53:13.444Z,0.00
2023-03-14T18:08:14.727Z,0.00
2023-03-14T18:23:15.550Z,0.00
2023-03-14T18:38:15.704Z,0.00
2023-03-14T18:53:16.006Z,0.00
2023-03-14T19:08:16.221Z,0.00
2023-03-14T19:23:16.460Z,0.00
2023-03-14T19:38:16.639Z,0.00
2023-03-14T19:53:18.665Z,0.00
2023-03-14T20:08:19.896Z,0.00
2023-03-14T20:23:20.005Z,0.00
2023-03-14T20:38:20.546Z,0.00
2023-03-14T20:53:21.369Z,0.00
2023-03-14T21:08:22.478Z,0.00
2023-03-14T21:23:22.600Z,0.00
2023-03-14T21:38:22.898Z,0.00
2023-03-14T21:53:23.503Z,0.00
2023-03-14T22:08:23.318Z,0.00
2023-03-14T22:23:23.681Z,0.00
2023-03-14T22:38:23.731Z,0.00
2023-03-14T22:53:24.794Z,0.00
2023-03-14T23:08:25.546Z,0.00
2023-03-14T23:23:25.372Z,0.00
2023-03-14T23:38:26.024Z,0.00
2023-03-14T23:53:27.253Z,0.00
